Terminal Aerodrome Forecast
Issued by NWS

Home | Current Version | Previous Version | Text Only | Print | Product List | Glossary On
Versions: 1 2 3 4 5 6 7 8 9 10 11 12 13 14 15 16
000
FTAK31 PANC 272338
TAFAAQ
TAF
PAAQ 272338Z 2800/2824 14010KT P6SM VCSH SCT070
      TEMPO 2800/2803 15008G15KT
     FM280800 VRB05KT P6SM -SHRA BKN060 OVC100
     FM282200 16006KT P6SM VCSH OVC050=

USA.gov is the U.S. government's official web portal to all federal, state and local government web resources and services.